Latest Weather Observations for Murrurundi Gap

IDN60801

Issued at 4:03 am EST Sunday 26 April 2015 (issued every 30 minutes, with the page automatically refreshed every 10 minutes)

About weather observations | Map of weather stations | Latest weather observations for NSW | Other Formats
Station Details ID: 061392 Name: MURRURUNDI GAP AWS Lat: -31.74 Lon: 150.79 Height: 729.4 m
Data from the previous 72 hours. | See also: Recent months for locations in New South Wales
Date/Time
EST
Temp
°C
App
Temp
°C
Dew
Point
Rel
Hum
%
Delta-T
°C
Wind Press
QNH
hPa
Press
MSL
hPa
Rain
since 9 am
mm
Dir
 
Spd
km/h
Gust
km/h
Spd
kts
Gust
kts
26/04:00am 7.6 3.5 6.1 90 0.7 NW 17 22 9 12 1009.4 1007.1 0.2
26/03:30am 7.2 3.5 6.1 93 0.5 NW 15 19 8 10 1009.3 1007.0 0.2
26/03:00am 7.7 5.6 5.7 87 0.9 NNW 6 11 3 6 1009.2 1006.9 0.2
26/02:30am 8.5 2.9 5.4 81 1.5 NNW 24 30 13 16 1009.6 1007.3 0.0
26/02:00am 9.5 4.5 4.5 71 2.3 NNW 20 28 11 15 1009.6 1007.3 0.0
26/01:30am 10.0 5.6 4.6 69 2.5 NW 17 22 9 12 1009.7 1007.4 0.0
26/01:00am 10.1 7.2 4.9 70 2.5 NW 9 13 5 7 1009.7 1007.4 0.0
26/12:30am 10.5 6.1 4.6 67 2.8 NNW 17 22 9 12 1009.9 1007.6 0.0
26/12:00am 11.6 6.5 4.3 61 3.4 NNW 20 26 11 14 1009.6 1007.3 0.0
 
Date/Time
EST
Temp
°C
App
Temp
°C
Dew
Point
Rel
Hum
%
Delta-T
°C
Wind Press
QNH
hPa
Press
MSL
hPa
Rain
since 9 am
mm
Dir
 
Spd
km/h
Gust
km/h
Spd
kts
Gust
kts
25/11:30pm 12.1 6.0 4.6 60 3.6 NW 26 35 14 19 1009.3 1007.0 0.0
25/11:00pm 12.6 6.2 5.1 60 3.6 NNW 28 33 15 18 1009.4 1007.1 0.0
25/10:30pm 12.8 6.0 5.0 59 3.8 NNW 30 35 16 19 1009.6 1007.3 0.0
25/10:00pm 13.6 4.6 4.5 54 4.4 NW 41 52 22 28 1009.3 1007.0 0.0
25/09:30pm 13.9 4.9 4.8 54 4.4 NW 41 48 22 26 1009.1 1006.8 0.0
25/09:00pm 14.6 5.1 5.1 53 4.7 NW 44 54 24 29 1008.7 1006.4 0.0
25/08:30pm 14.9 4.6 4.9 51 4.9 NW 48 57 26 31 1008.2 1005.9 0.0
25/08:00pm 15.4 5.5 5.0 50 5.1 NW 46 57 25 31 1008.3 1006.0 0.0
25/07:30pm 16.0 6.2 5.3 49 5.3 NW 46 57 25 31 1007.8 1005.5 0.0
25/07:00pm 16.5 7.3 5.5 48 5.5 NW 43 52 23 28 1007.7 1005.4 0.0
25/06:30pm 16.7 8.6 5.3 47 5.7 NW 37 44 20 24 1007.7 1005.4 0.0
25/05:30pm 17.2 10.2 5.8 47 5.8 NW 32 41 17 22 1007.6 1005.3 0.0
25/05:00pm 17.8 9.7 5.4 44 6.3 NW 37 52 20 28 1007.5 1005.2 0.0
25/04:30pm 18.1 9.2 5.3 43 6.4 NW 41 56 22 30 1007.2 1004.8 0.0
25/04:02pm 18.7 10.0 6.2 44 6.4 NW 41 59 22 32 1007.3 1004.9 0.0
25/04:00pm 18.4 9.3 5.9 44 6.4 NW 43 59 23 32 1007.2 1004.8 0.0
25/03:50pm 18.4 10.4 5.9 44 6.4 NW 37 57 20 31 1007.4 1005.1 0.0
25/03:30pm 18.4 10.9 6.3 45 6.2 NW 35 43 19 23 1007.6 1005.3 0.0
25/03:24pm 18.4 10.9 6.3 45 6.2 NW 35 54 19 29 1007.5 1005.2 0.0
25/03:00pm 18.6 11.1 6.1 44 6.4 NW 35 48 19 26 1007.7 1005.4 0.0
25/02:30pm 19.5 11.7 6.6 43 6.7 NW 37 48 20 26 1007.8 1005.5 0.0
25/02:00pm 18.2 11.2 6.1 45 6.2 NW 32 43 17 23 1008.1 1005.8 0.0
25/01:30pm 18.5 11.7 6.7 46 6.1 NW 32 41 17 22 1008.5 1006.1 0.0
25/01:00pm 19.4 11.9 6.5 43 6.7 NW 35 54 19 29 1008.6 1006.3 0.0
25/12:58pm 19.0 11.8 5.8 42 6.8 NW 33 54 18 29 1008.7 1006.4 0.0
25/12:30pm 18.6 11.0 5.8 43 6.5 NW 35 50 19 27 1008.9 1006.6 0.0
25/12:00pm 18.7 11.4 7.2 47 6.0 NW 35 48 19 26 1009.3 1007.0 0.0
25/11:30am 18.7 13.6 9.2 54 5.2 NW 26 33 14 18 1010.2 1007.9 0.0
25/11:00am 18.1 12.2 8.9 55 5.0 NW 30 39 16 21 1010.6 1008.3 0.0
25/10:30am 17.7 13.3 9.1 57 4.6 NW 22 28 12 15 1011.0 1008.8 0.0
25/10:00am 16.9 12.7 8.3 57 4.6 NNW 20 32 11 17 1011.2 1009.0 0.0
25/09:00am 15.8 11.7 8.5 62 3.9 NW 20 24 11 13 1011.6 1009.3 0.0
25/08:30am 15.2 11.7 8.7 65 3.4 NW 17 20 9 11 1011.5 1009.2 0.0
25/08:00am 14.7 12.4 8.9 68 3.1 NW 11 15 6 8 1011.4 1009.1 0.0
25/07:30am 13.9 11.4 8.3 69 2.9 WNW 11 15 6 8 1011.1 1008.9 0.0
25/07:00am 12.9 10.1 8.4 74 2.3 WNW 13 15 7 8 1010.9 1008.6 0.0
25/06:30am 12.6 10.1 8.1 74 2.3 WNW 11 13 6 7 1010.8 1008.5 0.0
25/05:30am 12.5 10.3 8.0 74 2.3 WNW 9 15 5 8 1010.4 1008.1 0.0
25/05:00am 12.6 10.5 8.1 74 2.3 W 9 11 5 6 1010.5 1008.2 0.0
25/04:30am 12.4 10.3 8.1 75 2.2 W 9 11 5 6 1010.4 1008.1 0.0
25/04:00am 12.4 10.3 8.1 75 2.2 W 9 13 5 7 1010.4 1008.1 0.0
25/03:30am 13.1 11.4 8.4 73 2.4 W 7 11 4 6 1010.4 1008.1 0.0
25/03:00am 13.0 11.3 8.3 73 2.4 WNW 7 9 4 5 1010.5 1008.2 0.0
25/02:30am 12.9 11.2 8.4 74 2.3 NW 7 9 4 5 1010.7 1008.4 0.0
25/02:00am 12.9 10.8 8.4 74 2.3 WNW 9 11 5 6 1010.9 1008.6 0.0
25/01:30am 12.5 10.4 8.4 76 2.1 W 9 13 5 7 1011.1 1008.9 0.0
25/01:00am 12.6 10.2 8.7 77 2.0 W 11 13 6 7 1011.1 1008.9 0.0
25/12:30am 12.4 9.6 8.7 78 1.9 WNW 13 17 7 9 1011.1 1008.9 0.0
25/12:00am 12.9 9.4 8.6 75 2.2 WNW 17 19 9 10 1011.0 1008.8 0.0
 
Date/Time
EST
Temp
°C
App
Temp
°C
Dew
Point
Rel
Hum
%
Delta-T
°C
Wind Press
QNH
hPa
Press
MSL
hPa
Rain
since 9 am
mm
Dir
 
Spd
km/h
Gust
km/h
Spd
kts
Gust
kts
24/11:30pm 12.9 9.4 8.8 76 2.1 WNW 17 20 9 11 1010.9 1008.6 0.0
24/11:00pm 12.7 8.6 8.8 77 2.0 NW 20 24 11 13 1010.8 1008.5 0.0
24/10:30pm 13.4 9.6 8.9 74 2.4 NW 19 24 10 13 1010.9 1008.6 0.0
24/10:00pm 13.6 9.8 8.9 73 2.5 NW 19 22 10 12 1011.0 1008.8 0.0
24/09:30pm 13.9 9.9 8.9 72 2.6 NW 20 24 11 13 1011.0 1008.8 0.0
24/09:00pm 14.7 10.3 8.9 68 3.1 NW 22 32 12 17 1010.8 1008.5 0.0
24/08:30pm 15.1 10.3 8.8 66 3.3 NW 24 30 13 16 1010.5 1008.2 0.0
24/08:00pm 15.8 10.3 9.0 64 3.6 NW 28 35 15 19 1010.2 1007.9 0.0
24/07:30pm 16.1 10.7 9.5 65 3.6 NNW 28 35 15 19 1010.0 1007.7 0.0
24/07:00pm 16.6 10.8 9.3 62 3.9 NW 30 39 16 21 1009.6 1007.3 0.0
24/06:30pm 16.8 10.5 9.7 63 3.9 NNW 33 37 18 20 1009.2 1006.9 0.0
24/06:00pm 17.3 10.8 10.2 63 3.9 NW 35 41 19 22 1009.0 1006.7 0.0
24/05:30pm 18.0 11.1 10.4 61 4.2 NW 37 43 20 23 1008.6 1006.3 0.0
24/05:00pm 18.6 11.0 10.4 59 4.6 NW 41 50 22 27 1008.2 1005.9 0.0
24/04:30pm 18.4 12.1 11.0 62 4.2 NW 35 46 19 25 1008.3 1006.0 0.0
24/04:00pm 18.6 13.3 11.4 63 4.1 NW 30 43 16 23 1008.3 1006.0 0.0
24/03:30pm 18.2 13.5 12.0 67 3.5 NNW 28 35 15 19 1008.6 1006.3 0.0
24/03:00pm 18.5 12.0 11.8 65 3.8 NNW 37 46 20 25 1008.3 1006.0 0.0
24/02:30pm 19.2 14.2 12.2 64 4.0 NNW 30 35 16 19 1008.8 1006.5 0.0
24/02:00pm 18.2 13.2 12.2 68 3.4 NW 30 37 16 20 1009.0 1006.7 0.0
24/01:30pm 19.1 15.1 13.1 68 3.5 NNW 26 37 14 20 1009.2 1006.9 0.0
24/01:00pm 18.6 15.0 13.2 71 3.2 NW 24 35 13 19 1009.7 1007.4 0.0
24/12:37pm 16.9 12.7 13.4 80 2.0 NW 28 35 15 19 1010.2 1007.9 0.0
24/12:30pm 16.7 12.0 13.2 80 2.0 NW 30 35 16 19 1010.2 1007.9 0.0
24/12:00pm 16.5 12.3 13.6 83 1.7 NW 28 37 15 20 1010.6 1008.3 0.0
24/11:30am 15.7 12.5 13.0 84 1.6 NW 22 32 12 17 1011.1 1008.9 0.0
24/11:00am 15.1 10.6 12.6 85 1.4 NW 28 35 15 19 1011.4 1009.1 0.0
24/10:30am 14.5 10.3 12.4 87 1.2 NW 26 33 14 18 1011.7 1009.4 0.0
24/10:03am 14.7 11.6 12.2 85 1.4 NW 20 26 11 14 1011.7 1009.4 0.0
24/10:00am 14.7 11.3 12.4 86 1.3 NW 22 28 12 15 1011.7 1009.4 0.0
24/09:30am 14.6 10.3 12.1 85 1.4 NW 26 32 14 17 1011.7 1009.4 0.0
24/09:20am 14.6 10.3 11.9 84 1.5 NW 26 32 14 17 1011.7 1009.4 0.0
24/09:00am 14.4 10.0 11.7 84 1.5 NNW 26 32 14 17 1011.7 1009.4 0.0
24/08:30am 14.0 11.3 11.7 86 1.3 NW 17 20 9 11 1011.8 1009.5 0.0
24/08:00am 13.6 10.8 11.3 86 1.3 NW 17 20 9 11 1011.8 1009.5 0.0
24/07:47am 13.6 10.4 11.3 86 1.3 NW 19 20 10 11 1011.8 1009.5 0.0
24/07:30am 13.3 10.1 11.2 87 1.2 NW 19 20 10 11 1011.5 1009.2 0.0
24/07:00am 13.0 9.2 11.1 88 1.0 NW 22 24 12 13 1011.0 1008.8 0.0
24/06:30am 13.0 9.6 10.5 85 1.4 NW 19 22 10 12 1010.7 1008.4 0.0
24/06:00am 13.5 12.0 10.7 83 1.5 WNW 9 13 5 7 1010.6 1008.3 0.0
24/05:30am 13.7 11.1 10.7 82 1.6 NW 15 17 8 9 1010.7 1008.4 0.0
24/05:00am 13.2 10.2 10.6 84 1.4 NW 17 19 9 10 1010.8 1008.5 0.0
24/04:30am 13.6 10.5 10.4 81 1.7 NW 17 19 9 10 1010.8 1008.5 0.0
24/04:00am 13.4 10.3 10.4 82 1.6 NW 17 19 9 10 1010.8 1008.5 0.0
24/03:30am 13.6 10.2 10.4 81 1.7 NW 19 22 10 12 1010.7 1008.4 0.0
24/03:00am 13.9 11.2 10.3 79 2.0 NW 15 17 8 9 1011.0 1008.8 0.0
24/02:30am 13.6 10.5 10.4 81 1.7 NW 17 20 9 11 1011.1 1008.9 0.0
24/02:00am 13.2 9.6 10.6 84 1.4 NW 20 20 11 11 1011.4 1009.1 0.0
24/01:30am 13.6 10.2 10.6 82 1.6 NW 19 20 10 11 1011.4 1009.1 0.0
24/01:00am 13.2 9.8 10.6 84 1.4 NW 19 20 10 11 1011.7 1009.4 0.0
24/12:30am 12.9 9.6 10.8 87 1.1 NW 19 19 10 10 1011.9 1009.6 0.0
24/12:00am 13.2 10.3 10.9 86 1.3 NW 17 20 9 11 1012.1 1009.8 0.0
 
Date/Time
EST
Temp
°C
App
Temp
°C
Dew
Point
Rel
Hum
%
Delta-T
°C
Wind Press
QNH
hPa
Press
MSL
hPa
Rain
since 9 am
mm
Dir
 
Spd
km/h
Gust
km/h
Spd
kts
Gust
kts
23/11:30pm 13.6 11.0 10.8 83 1.5 NW 15 17 8 9 1012.2 1010.0 0.0
23/11:00pm 14.4 12.2 10.8 79 2.0 NW 13 15 7 8 1012.4 1010.2 0.0
23/10:30pm 14.0 11.9 11.0 82 1.6 NW 13 15 7 8 1012.7 1010.5 0.0
23/10:00pm 13.8 11.7 11.1 84 1.5 NW 13 17 7 9 1013.1 1010.8 0.0
23/09:30pm 13.4 11.3 11.1 86 1.3 NW 13 17 7 9 1013.1 1010.8 0.0
23/09:00pm 13.1 10.2 11.0 87 1.1 NW 17 19 9 10 1013.3 1011.0 0.0
23/08:30pm 13.1 10.3 11.2 88 1.0 NW 17 19 9 10 1013.1 1010.8 0.0
23/08:00pm 13.7 11.5 10.9 83 1.5 WNW 13 15 7 8 1013.0 1010.7 0.0
23/07:30pm 14.0 12.3 11.3 84 1.5 WNW 11 15 6 8 1012.9 1010.6 0.0
23/07:00pm 14.6 12.8 11.0 79 2.0 NW 11 13 6 7 1012.7 1010.5 0.0
23/06:30pm 14.7 13.0 11.3 80 1.9 NW 11 13 6 7 1012.6 1010.4 0.0
23/06:00pm 14.8 12.9 11.8 82 1.7 WNW 13 15 7 8 1012.3 1010.1 0.0
23/05:30pm 15.9 14.3 11.5 75 2.5 NW 11 13 6 7 1012.1 1009.8 0.0
23/05:00pm 17.9 16.8 11.9 68 3.4 WNW 9 13 5 7 1011.9 1009.6 0.0
23/04:30pm 18.5 17.9 11.8 65 3.8 WNW 6 11 3 6 1011.6 1009.3 0.0
23/04:00pm 18.2 16.8 11.0 63 4.0 WNW 9 15 5 8 1011.6 1009.3 0.0
23/03:30pm 18.0 17.7 11.3 65 3.8 E 4 9 2 5 1011.8 1009.5 0.0
23/03:00pm 18.0 16.7 11.1 64 3.9 W 9 13 5 7 1011.9 1009.6 0.0
23/02:30pm 16.7 15.2 10.5 67 3.4 NNW 9 13 5 7 1012.0 1009.7 0.0
23/02:00pm 17.3 15.5 12.2 72 2.9 NW 13 19 7 10 1012.1 1009.8 0.0
23/01:30pm 15.8 12.6 11.4 75 2.5 NNW 19 22 10 12 1012.4 1010.2 0.0
23/01:00pm 14.8 12.1 11.8 82 1.7 NW 17 24 9 13 1012.9 1010.6 0.0
23/12:32pm 14.4 11.4 12.1 86 1.3 NW 19 24 10 13 1013.2 1010.9 0.0
23/12:30pm 14.4 11.4 12.1 86 1.3 NW 19 24 10 13 1013.2 1010.9 0.0
23/12:00pm 14.2 11.3 12.4 89 1.0 NW 19 22 10 12 1013.6 1011.4 0.0
23/11:30am 12.7 9.7 12.5 99 0.1 NW 20 24 11 13 1014.0 1011.8 0.0
23/11:00am 11.9 9.2 11.7 99 0.1 NW 17 20 9 11 1014.4 1012.1 0.0
23/10:55am 12.3 9.7 12.1 99 0.1 NW 17 22 9 12 1014.5 1012.2 0.0
23/10:30am 11.9 8.8 11.7 99 0.1 NW 19 22 10 12 1014.4 1012.1 0.0
23/10:00am 11.7 8.6 11.5 99 0.1 NW 19 22 10 12 1014.5 1012.2 0.0
23/09:30am 11.6 8.2 11.4 99 0.1 NW 20 24 11 13 1014.4 1012.1 0.0
23/09:00am 11.7 8.9 11.5 99 0.1 NW 17 22 9 12 1014.3 1012.0 4.2
23/08:30am 11.6 8.8 11.4 99 0.1 NW 17 20 9 11 1014.1 1011.9 4.2
23/08:00am 11.7 8.9 11.5 99 0.1 NW 17 20 9 11 1014.0 1011.8 4.2
23/07:30am 11.6 9.6 11.4 99 0.1 NW 13 17 7 9 1013.9 1011.7 4.2
23/07:00am 11.6 9.2 11.4 99 0.1 NW 15 17 8 9 1013.6 1011.4 4.2
23/06:30am 11.5 8.7 11.3 99 0.1 NNW 17 20 9 11 1013.5 1011.3 4.2
23/06:00am 11.5 8.7 11.3 99 0.1 NNW 17 20 9 11 1013.3 1011.0 4.2
23/05:52am 11.5 9.4 11.3 99 0.1 NW 13 17 7 9 1013.3 1011.0 4.2
23/05:51am 11.5 9.8 11.3 99 0.1 NW 11 15 6 8 1013.3 1011.0 4.2
23/05:30am 11.6 10.0 11.4 99 0.1 NW 11 13 6 7 1013.3 1011.0 4.2
23/05:00am 11.7 8.9 11.5 99 0.1 NW 17 20 9 11 1012.9 1010.6 4.2
23/04:30am 11.6 8.8 11.4 99 0.1 NW 17 19 9 10 1012.6 1010.4 4.2

Other Formats:

Comma delimited format used in spreadsheet applications
http://www.bom.gov.au/fwo/IDN60801/IDN60801.95747.axf

JavaScript Object Notation format (JSON) in row-major order
http://www.bom.gov.au/fwo/IDN60801/IDN60801.95747.json